sensor_id;sensor_type;location;lat;lon;timestamp;pressure;altitude;pressure_sealevel;temperature;humidity
818;BME280;391;51.052;6.954;2023-08-12T00:00:09;101074.69;;;21.51;100.00
818;BME280;391;51.052;6.954;2023-08-12T00:02:18;101070.97;;;21.69;100.00
818;BME280;391;51.052;6.954;2023-08-12T00:04:23;101064.63;;;21.81;100.00
818;BME280;391;51.052;6.954;2023-08-12T00:06:26;101062.84;;;21.80;100.00
818;BME280;391;51.052;6.954;2023-08-12T00:08:30;101074.56;;;21.60;100.00
818;BME280;391;51.052;6.954;2023-08-12T00:10:34;101071.31;;;21.36;100.00
818;BME280;391;51.052;6.954;2023-08-12T00:12:38;101071.53;;;21.15;100.00
818;BME280;391;51.052;6.954;2023-08-12T00:14:42;101074.97;;;21.23;100.00
818;BME280;391;51.052;6.954;2023-08-12T00:16:45;101061.53;;;21.42;100.00
818;BME280;391;51.052;6.954;2023-08-12T00:18:49;101059.75;;;21.41;100.00
818;BME280;391;51.052;6.954;2023-08-12T00:20:53;101056.28;;;21.38;100.00
818;BME280;391;51.052;6.954;2023-08-12T00:22:57;101069.59;;;21.29;100.00
818;BME280;391;51.052;6.954;2023-08-12T00:25:00;101061.59;;;21.38;100.00
818;BME280;391;51.052;6.954;2023-08-12T00:27:04;101055.34;;;21.39;100.00
818;BME280;391;51.052;6.954;2023-08-12T00:29:08;101055.44;;;21.34;100.00
818;BME280;391;51.052;6.954;2023-08-12T00:31:12;101074.84;;;21.35;100.00
818;BME280;391;51.052;6.954;2023-08-12T00:33:15;101074.97;;;21.24;100.00
818;BME280;391;51.052;6.954;2023-08-12T00:35:20;101073.25;;;21.22;100.00
818;BME280;391;51.052;6.954;2023-08-12T00:37:25;101071.50;;;21.18;100.00
818;BME280;391;51.052;6.954;2023-08-12T00:39:28;101072.31;;;21.23;100.00
818;BME280;391;51.052;6.954;2023-08-12T00:41:32;101061.78;;;21.17;100.00
818;BME280;391;51.052;6.954;2023-08-12T00:43:36;101055.56;;;21.21;100.00
818;BME280;391;51.052;6.954;2023-08-12T00:45:40;101058.13;;;21.25;100.00
818;BME280;391;51.052;6.954;2023-08-12T00:47:44;101040.69;;;20.97;100.00
818;BME280;391;51.052;6.954;2023-08-12T00:49:48;101046.94;;;20.91;100.00
818;BME280;391;51.052;6.954;2023-08-12T00:51:52;101034.56;;;20.90;100.00
818;BME280;391;51.052;6.954;2023-08-12T00:53:59;101042.59;;;20.81;100.00
818;BME280;391;51.052;6.954;2023-08-12T00:56:03;100982.81;;;20.47;100.00
818;BME280;391;51.052;6.954;2023-08-12T00:58:08;101058.44;;;20.92;100.00
818;BME280;391;51.052;6.954;2023-08-12T01:00:13;101049.50;;;21.02;100.00
818;BME280;391;51.052;6.954;2023-08-12T01:02:19;101045.19;;;20.87;100.00
818;BME280;391;51.052;6.954;2023-08-12T01:04:22;101036.44;;;20.79;100.00
818;BME280;391;51.052;6.954;2023-08-12T01:06:26;101029.47;;;20.71;100.00
818;BME280;391;51.052;6.954;2023-08-12T01:08:30;101025.00;;;20.71;100.00
818;BME280;391;51.052;6.954;2023-08-12T01:10:39;101029.44;;;20.69;100.00
818;BME280;391;51.052;6.954;2023-08-12T01:12:52;101016.22;;;20.71;100.00
818;BME280;391;51.052;6.954;2023-08-12T01:15:02;101020.66;;;20.64;100.00
818;BME280;391;51.052;6.954;2023-08-12T01:17:11;101018.03;;;20.61;100.00
818;BME280;391;51.052;6.954;2023-08-12T01:19:22;101018.06;;;20.55;100.00
818;BME280;391;51.052;6.954;2023-08-12T01:21:29;100989.97;;;20.34;100.00
818;BME280;391;51.052;6.954;2023-08-12T01:23:35;101010.94;;;20.62;100.00
818;BME280;391;51.052;6.954;2023-08-12T01:25:40;101005.47;;;20.86;100.00
818;BME280;391;51.052;6.954;2023-08-12T01:27:44;100991.28;;;20.87;100.00
818;BME280;391;51.052;6.954;2023-08-12T01:29:51;100988.53;;;21.00;100.00
818;BME280;391;51.052;6.954;2023-08-12T01:31:58;100961.25;;;20.88;100.00
818;BME280;391;51.052;6.954;2023-08-12T01:34:14;100984.97;;;21.00;100.00
818;BME280;391;51.052;6.954;2023-08-12T01:36:21;100993.13;;;20.82;100.00
818;BME280;391;51.052;6.954;2023-08-12T01:38:29;100979.06;;;20.72;100.00
818;BME280;391;51.052;6.954;2023-08-12T01:40:38;100972.09;;;20.62;100.00
818;BME280;391;51.052;6.954;2023-08-12T01:42:42;100972.13;;;20.57;100.00
818;BME280;391;51.052;6.954;2023-08-12T01:44:49;100937.84;;;20.36;100.00
818;BME280;391;51.052;6.954;2023-08-12T01:46:53;100967.78;;;20.50;100.00
818;BME280;391;51.052;6.954;2023-08-12T01:48:57;100962.53;;;20.44;100.00
818;BME280;391;51.052;6.954;2023-08-12T01:51:02;100966.06;;;20.45;100.00
818;BME280;391;51.052;6.954;2023-08-12T01:53:05;100969.63;;;20.39;100.00
818;BME280;391;51.052;6.954;2023-08-12T01:55:09;100963.47;;;20.36;100.00
818;BME280;391;51.052;6.954;2023-08-12T01:57:12;100967.91;;;20.34;100.00
818;BME280;391;51.052;6.954;2023-08-12T01:59:16;100966.09;;;20.36;100.00
818;BME280;391;51.052;6.954;2023-08-12T02:01:19;100972.16;;;20.53;100.00
818;BME280;391;51.052;6.954;2023-08-12T02:03:23;100971.34;;;20.43;100.00
818;BME280;391;51.052;6.954;2023-08-12T02:05:27;100977.38;;;20.64;100.00
818;BME280;391;51.052;6.954;2023-08-12T02:07:30;100969.41;;;20.67;100.00
818;BME280;391;51.052;6.954;2023-08-12T02:09:34;100969.41;;;20.65;100.00
818;BME280;391;51.052;6.954;2023-08-12T02:11:37;100968.56;;;20.58;100.00
818;BME280;391;51.052;6.954;2023-08-12T02:13:42;100961.50;;;20.59;100.00
818;BME280;391;51.052;6.954;2023-08-12T02:15:46;100961.47;;;20.67;100.00
818;BME280;391;51.052;6.954;2023-08-12T02:17:51;100962.41;;;20.61;100.00
818;BME280;391;51.052;6.954;2023-08-12T02:19:55;100969.28;;;20.80;100.00
818;BME280;391;51.052;6.954;2023-08-12T02:21:58;100962.31;;;20.69;100.00
818;BME280;391;51.052;6.954;2023-08-12T02:24:02;100958.66;;;20.82;100.00
818;BME280;391;51.052;6.954;2023-08-12T02:26:06;100957.13;;;20.56;100.00
818;BME280;391;51.052;6.954;2023-08-12T02:28:09;100956.31;;;20.48;100.00
818;BME280;391;51.052;6.954;2023-08-12T02:30:14;100961.53;;;20.56;100.00
818;BME280;391;51.052;6.954;2023-08-12T02:32:17;100961.53;;;20.56;100.00
818;BME280;391;51.052;6.954;2023-08-12T02:34:20;100964.28;;;20.47;100.00
818;BME280;391;51.052;6.954;2023-08-12T02:36:24;100958.06;;;20.49;100.00
818;BME280;391;51.052;6.954;2023-08-12T02:38:30;100955.34;;;20.58;100.00
818;BME280;391;51.052;6.954;2023-08-12T02:40:33;100952.75;;;20.49;100.00
818;BME280;391;51.052;6.954;2023-08-12T02:42:37;100946.59;;;20.47;100.00
818;BME280;391;51.052;6.954;2023-08-12T02:44:40;100950.88;;;20.62;100.00
818;BME280;391;51.052;6.954;2023-08-12T02:46:45;100945.50;;;20.71;100.00
818;BME280;391;51.052;6.954;2023-08-12T02:48:48;100948.25;;;20.59;100.00
818;BME280;391;51.052;6.954;2023-08-12T02:50:52;100943.84;;;20.59;100.00
818;BME280;391;51.052;6.954;2023-08-12T02:52:55;100950.09;;;20.54;100.00
818;BME280;391;51.052;6.954;2023-08-12T02:54:59;100943.06;;;20.50;100.00
818;BME280;391;51.052;6.954;2023-08-12T02:57:02;100948.34;;;20.50;100.00
818;BME280;391;51.052;6.954;2023-08-12T02:59:06;100945.66;;;20.57;100.00
818;BME280;391;51.052;6.954;2023-08-12T03:01:10;100950.00;;;20.63;100.00
818;BME280;391;51.052;6.954;2023-08-12T03:03:15;100938.56;;;20.61;100.00
818;BME280;391;51.052;6.954;2023-08-12T03:05:18;100944.72;;;20.60;100.00
818;BME280;391;51.052;6.954;2023-08-12T03:07:22;100936.75;;;20.62;100.00
818;BME280;391;51.052;6.954;2023-08-12T03:09:26;100935.03;;;20.61;100.00
818;BME280;391;51.052;6.954;2023-08-12T03:11:29;100934.22;;;20.51;100.00
818;BME280;391;51.052;6.954;2023-08-12T03:13:35;100936.00;;;20.46;100.00
818;BME280;391;51.052;6.954;2023-08-12T03:15:40;100935.16;;;20.42;100.00
818;BME280;391;51.052;6.954;2023-08-12T03:17:45;100937.75;;;20.51;100.00
818;BME280;391;51.052;6.954;2023-08-12T03:19:50;100934.25;;;20.46;100.00
818;BME280;391;51.052;6.954;2023-08-12T03:21:54;100931.63;;;20.43;100.00
818;BME280;391;51.052;6.954;2023-08-12T03:23:58;100928.94;;;20.48;100.00
818;BME280;391;51.052;6.954;2023-08-12T03:26:02;100928.09;;;20.43;100.00
818;BME280;391;51.052;6.954;2023-08-12T03:28:05;100921.91;;;20.42;100.00
818;BME280;391;51.052;6.954;2023-08-12T03:30:10;100915.69;;;20.48;100.00
818;BME280;391;51.052;6.954;2023-08-12T03:32:15;100904.34;;;20.34;100.00
818;BME280;391;51.052;6.954;2023-08-12T03:34:18;100909.63;;;20.35;100.00
818;BME280;391;51.052;6.954;2023-08-12T03:36:23;100911.41;;;20.30;100.00
818;BME280;391;51.052;6.954;2023-08-12T03:38:26;100902.63;;;20.27;100.00
818;BME280;391;51.052;6.954;2023-08-12T03:40:30;100901.59;;;20.43;100.00
818;BME280;391;51.052;6.954;2023-08-12T03:42:32;100900.69;;;20.47;100.00
818;BME280;391;51.052;6.954;2023-08-12T03:44:37;100895.50;;;20.35;100.00
818;BME280;391;51.052;6.954;2023-08-12T03:46:41;100889.34;;;20.31;100.00
818;BME280;391;51.052;6.954;2023-08-12T03:48:45;100893.75;;;20.31;100.00
818;BME280;391;51.052;6.954;2023-08-12T03:50:49;100887.63;;;20.29;100.00
818;BME280;391;51.052;6.954;2023-08-12T03:52:54;100881.41;;;20.31;100.00
818;BME280;391;51.052;6.954;2023-08-12T03:54:57;100870.84;;;20.24;100.00
818;BME280;391;51.052;6.954;2023-08-12T03:57:01;100859.38;;;20.28;100.00
818;BME280;391;51.052;6.954;2023-08-12T03:59:04;100851.47;;;20.19;100.00
818;BME280;391;51.052;6.954;2023-08-12T04:01:07;100863.81;;;20.20;100.00
818;BME280;391;51.052;6.954;2023-08-12T04:03:10;100851.53;;;20.13;100.00
818;BME280;391;51.052;6.954;2023-08-12T04:05:14;100846.25;;;20.10;100.00
818;BME280;391;51.052;6.954;2023-08-12T04:07:17;100842.69;;;20.12;100.00
818;BME280;391;51.052;6.954;2023-08-12T04:09:22;100836.63;;;19.99;100.00
818;BME280;391;51.052;6.954;2023-08-12T04:11:25;100844.50;;;20.07;100.00
818;BME280;391;51.052;6.954;2023-08-12T04:13:29;100842.81;;;19.98;100.00
818;BME280;391;51.052;6.954;2023-08-12T04:15:36;100842.84;;;19.92;100.00
818;BME280;391;51.052;6.954;2023-08-12T04:17:40;100850.81;;;19.89;100.00
818;BME280;391;51.052;6.954;2023-08-12T04:19:44;100851.66;;;19.96;100.00
818;BME280;391;51.052;6.954;2023-08-12T04:21:47;100852.56;;;19.92;100.00
818;BME280;391;51.052;6.954;2023-08-12T04:23:50;100854.28;;;19.94;100.00
818;BME280;391;51.052;6.954;2023-08-12T04:25:55;100846.38;;;19.93;100.00
818;BME280;391;51.052;6.954;2023-08-12T04:28:02;100848.16;;;19.94;100.00
818;BME280;391;51.052;6.954;2023-08-12T04:30:08;100845.53;;;19.91;100.00
818;BME280;391;51.052;6.954;2023-08-12T04:32:12;100845.50;;;19.92;100.00
818;BME280;391;51.052;6.954;2023-08-12T04:34:16;100844.66;;;19.90;100.00
818;BME280;391;51.052;6.954;2023-08-12T04:36:20;100848.13;;;19.95;100.00
818;BME280;391;51.052;6.954;2023-08-12T04:38:25;100846.34;;;19.99;100.00
818;BME280;391;51.052;6.954;2023-08-12T04:40:31;100839.28;;;19.98;100.00
818;BME280;391;51.052;6.954;2023-08-12T04:42:36;100845.44;;;20.00;100.00
818;BME280;391;51.052;6.954;2023-08-12T04:44:41;100845.44;;;20.03;100.00
818;BME280;391;51.052;6.954;2023-08-12T04:46:44;100842.72;;;20.09;100.00
818;BME280;391;51.052;6.954;2023-08-12T04:48:49;100842.75;;;20.04;100.00
818;BME280;391;51.052;6.954;2023-08-12T04:50:52;100843.66;;;20.02;100.00
818;BME280;391;51.052;6.954;2023-08-12T04:52:56;100841.03;;;20.00;100.00
818;BME280;391;51.052;6.954;2023-08-12T04:55:00;100850.75;;;20.00;100.00
818;BME280;391;51.052;6.954;2023-08-12T04:57:04;100844.56;;;19.98;100.00
818;BME280;391;51.052;6.954;2023-08-12T04:59:09;100845.47;;;19.97;100.00
818;BME280;391;51.052;6.954;2023-08-12T05:01:12;100841.03;;;20.00;100.00
818;BME280;391;51.052;6.954;2023-08-12T05:03:16;100847.19;;;20.01;100.00
818;BME280;391;51.052;6.954;2023-08-12T05:05:20;100843.63;;;20.06;100.00
818;BME280;391;51.052;6.954;2023-08-12T05:07:24;100827.75;;;20.05;100.00
818;BME280;391;51.052;6.954;2023-08-12T05:09:29;100837.50;;;19.98;100.00
818;BME280;391;51.052;6.954;2023-08-12T05:11:32;100835.75;;;19.99;100.00
818;BME280;391;51.052;6.954;2023-08-12T05:13:35;100830.44;;;19.99;100.00
818;BME280;391;51.052;6.954;2023-08-12T05:15:40;100833.97;;;20.02;100.00
818;BME280;391;51.052;6.954;2023-08-12T05:17:44;100837.47;;;20.04;100.00
818;BME280;391;51.052;6.954;2023-08-12T05:19:50;100832.16;;;20.06;100.00
818;BME280;391;51.052;6.954;2023-08-12T05:21:54;100832.97;;;20.14;100.00
818;BME280;391;51.052;6.954;2023-08-12T05:23:57;100832.06;;;20.17;100.00
818;BME280;391;51.052;6.954;2023-08-12T05:26:02;100832.06;;;20.20;100.00
818;BME280;391;51.052;6.954;2023-08-12T05:28:05;100835.56;;;20.22;100.00
818;BME280;391;51.052;6.954;2023-08-12T05:30:09;100835.53;;;20.28;100.00
818;BME280;391;51.052;6.954;2023-08-12T05:32:13;100829.31;;;20.32;100.00
818;BME280;391;51.052;6.954;2023-08-12T05:34:16;100831.13;;;20.28;100.00
818;BME280;391;51.052;6.954;2023-08-12T05:36:19;100832.00;;;20.26;100.00
818;BME280;391;51.052;6.954;2023-08-12T05:38:23;100822.28;;;20.23;100.00
818;BME280;391;51.052;6.954;2023-08-12T05:40:26;100828.50;;;20.21;100.00
818;BME280;391;51.052;6.954;2023-08-12T05:42:30;100826.75;;;20.17;100.00
818;BME280;391;51.052;6.954;2023-08-12T05:44:33;100829.41;;;20.17;100.00
818;BME280;391;51.052;6.954;2023-08-12T05:46:37;100823.28;;;20.12;100.00
818;BME280;391;51.052;6.954;2023-08-12T05:48:41;100833.84;;;20.15;100.00
818;BME280;391;51.052;6.954;2023-08-12T05:50:45;100832.09;;;20.11;100.00
818;BME280;391;51.052;6.954;2023-08-12T05:52:48;100842.66;;;20.14;100.00
818;BME280;391;51.052;6.954;2023-08-12T05:54:52;100848.88;;;20.13;100.00
818;BME280;391;51.052;6.954;2023-08-12T05:56:55;100864.75;;;20.16;100.00
818;BME280;391;51.052;6.954;2023-08-12T05:58:58;100858.56;;;20.15;100.00
818;BME280;391;51.052;6.954;2023-08-12T06:01:02;100860.34;;;20.12;100.00
818;BME280;391;51.052;6.954;2023-08-12T06:03:05;100855.97;;;20.09;100.00
818;BME280;391;51.052;6.954;2023-08-12T06:05:11;100856.94;;;20.00;100.00
818;BME280;391;51.052;6.954;2023-08-12T06:07:14;100856.94;;;20.00;100.00
818;BME280;391;51.052;6.954;2023-08-12T06:09:17;100856.03;;;19.98;100.00
818;BME280;391;51.052;6.954;2023-08-12T06:11:21;100848.13;;;19.95;100.00
818;BME280;391;51.052;6.954;2023-08-12T06:13:24;100851.66;;;19.94;100.00
818;BME280;391;51.052;6.954;2023-08-12T06:15:28;100856.09;;;19.94;100.00
818;BME280;391;51.052;6.954;2023-08-12T06:17:31;100853.44;;;19.94;100.00
818;BME280;391;51.052;6.954;2023-08-12T06:19:35;100843.72;;;19.91;100.00
818;BME280;391;51.052;6.954;2023-08-12T06:21:39;100819.16;;;19.76;100.00
818;BME280;391;51.052;6.954;2023-08-12T06:23:43;100847.28;;;19.93;100.00
818;BME280;391;51.052;6.954;2023-08-12T06:25:46;100835.78;;;19.93;100.00
818;BME280;391;51.052;6.954;2023-08-12T06:27:50;100833.16;;;19.91;100.00
818;BME280;391;51.052;6.954;2023-08-12T06:29:52;100827.00;;;19.89;100.00
818;BME280;391;51.052;6.954;2023-08-12T06:31:56;100824.34;;;19.91;100.00
818;BME280;391;51.052;6.954;2023-08-12T06:33:59;100824.34;;;19.89;100.00
818;BME280;391;51.052;6.954;2023-08-12T06:36:03;100819.94;;;19.88;100.00
818;BME280;391;51.052;6.954;2023-08-12T06:38:08;100811.16;;;19.86;100.00
818;BME280;391;51.052;6.954;2023-08-12T06:40:12;100815.56;;;19.86;100.00
818;BME280;391;51.052;6.954;2023-08-12T06:42:15;100816.47;;;19.83;100.00
818;BME280;391;51.052;6.954;2023-08-12T06:44:19;100812.94;;;19.83;100.00
818;BME280;391;51.052;6.954;2023-08-12T06:46:23;100805.88;;;19.82;100.00
818;BME280;391;51.052;6.954;2023-08-12T06:48:26;100804.13;;;19.84;100.00
818;BME280;391;51.052;6.954;2023-08-12T06:50:30;100808.50;;;19.85;100.00
818;BME280;391;51.052;6.954;2023-08-12T06:52:35;100791.75;;;19.87;100.00
818;BME280;391;51.052;6.954;2023-08-12T06:54:40;100784.66;;;19.89;100.00
818;BME280;391;51.052;6.954;2023-08-12T06:56:43;100790.81;;;19.90;100.00
818;BME280;391;51.052;6.954;2023-08-12T06:58:47;100801.34;;;19.94;100.00
818;BME280;391;51.052;6.954;2023-08-12T07:00:50;100797.84;;;19.97;100.00
818;BME280;391;51.052;6.954;2023-08-12T07:02:55;100780.19;;;19.96;100.00
818;BME280;391;51.052;6.954;2023-08-12T07:04:59;100778.34;;;20.05;100.00
818;BME280;391;51.052;6.954;2023-08-12T07:07:02;100779.13;;;20.14;100.00
818;BME280;391;51.052;6.954;2023-08-12T07:09:05;100782.63;;;20.19;100.00
818;BME280;391;51.052;6.954;2023-08-12T07:11:10;100784.31;;;20.24;100.00
818;BME280;391;51.052;6.954;2023-08-12T07:13:14;100780.84;;;20.21;100.00
818;BME280;391;51.052;6.954;2023-08-12T07:15:17;100775.56;;;20.18;100.00
818;BME280;391;51.052;6.954;2023-08-12T07:17:20;100775.56;;;20.18;100.00
818;BME280;391;51.052;6.954;2023-08-12T07:19:23;100779.97;;;20.17;100.00
818;BME280;391;51.052;6.954;2023-08-12T07:21:26;100769.50;;;20.06;100.00
818;BME280;391;51.052;6.954;2023-08-12T07:23:30;100788.03;;;20.05;100.00
818;BME280;391;51.052;6.954;2023-08-12T07:25:34;100809.25;;;20.03;100.00
818;BME280;391;51.052;6.954;2023-08-12T07:27:39;100825.97;;;20.08;100.00
818;BME280;391;51.052;6.954;2023-08-12T07:29:42;100824.22;;;20.06;100.00
818;BME280;391;51.052;6.954;2023-08-12T07:31:46;100818.91;;;20.07;100.00
818;BME280;391;51.052;6.954;2023-08-12T07:33:49;100821.56;;;20.04;100.00
818;BME280;391;51.052;6.954;2023-08-12T07:35:52;100815.44;;;19.99;100.00
818;BME280;391;51.052;6.954;2023-08-12T07:37:56;100826.88;;;20.06;100.00
818;BME280;391;51.052;6.954;2023-08-12T07:39:59;100828.59;;;20.08;100.00
818;BME280;391;51.052;6.954;2023-08-12T07:42:02;100836.56;;;20.08;100.00
818;BME280;391;51.052;6.954;2023-08-12T07:44:07;100841.84;;;20.08;100.00
818;BME280;391;51.052;6.954;2023-08-12T07:46:10;100834.84;;;20.01;100.00
818;BME280;391;51.052;6.954;2023-08-12T07:48:14;100814.56;;;20.00;100.00
818;BME280;391;51.052;6.954;2023-08-12T07:50:18;100809.25;;;20.02;100.00
818;BME280;391;51.052;6.954;2023-08-12T07:52:21;100805.75;;;20.00;100.00
818;BME280;391;51.052;6.954;2023-08-12T07:54:24;100803.03;;;20.04;100.00
818;BME280;391;51.052;6.954;2023-08-12T07:56:28;100809.22;;;20.06;100.00
818;BME280;391;51.052;6.954;2023-08-12T07:58:32;100814.50;;;20.10;100.00
818;BME280;391;51.052;6.954;2023-08-12T08:00:36;100812.72;;;20.08;100.00
818;BME280;391;51.052;6.954;2023-08-12T08:02:40;100802.13;;;20.10;100.00
818;BME280;391;51.052;6.954;2023-08-12T08:04:43;100726.66;;;19.65;100.00
818;BME280;391;51.052;6.954;2023-08-12T08:06:46;100801.25;;;20.08;100.00
818;BME280;391;51.052;6.954;2023-08-12T08:08:52;100798.59;;;20.08;100.00
818;BME280;391;51.052;6.954;2023-08-12T08:10:56;100788.00;;;20.10;100.00
818;BME280;391;51.052;6.954;2023-08-12T08:12:59;100785.38;;;20.10;100.00
818;BME280;391;51.052;6.954;2023-08-12T08:15:03;100786.22;;;20.12;100.00
818;BME280;391;51.052;6.954;2023-08-12T08:17:08;100788.81;;;20.18;100.00
818;BME280;391;51.052;6.954;2023-08-12T08:19:12;100780.88;;;20.19;100.00
818;BME280;391;51.052;6.954;2023-08-12T08:21:15;100785.22;;;20.25;100.00
818;BME280;391;51.052;6.954;2023-08-12T08:23:19;100787.78;;;20.34;100.00
818;BME280;391;51.052;6.954;2023-08-12T08:25:22;100789.50;;;20.39;100.00
818;BME280;391;51.052;6.954;2023-08-12T08:27:26;100775.31;;;20.48;100.00
818;BME280;391;51.052;6.954;2023-08-12T08:29:29;100779.59;;;20.56;100.00
818;BME280;391;51.052;6.954;2023-08-12T08:31:32;100787.44;;;20.66;100.00
818;BME280;391;51.052;6.954;2023-08-12T08:33:36;100783.00;;;20.69;100.00
818;BME280;391;51.052;6.954;2023-08-12T08:35:40;100792.63;;;20.76;100.00
818;BME280;391;51.052;6.954;2023-08-12T08:37:43;100789.94;;;20.79;100.00
818;BME280;391;51.052;6.954;2023-08-12T08:39:47;100802.34;;;20.74;100.00
818;BME280;391;51.052;6.954;2023-08-12T08:41:51;100802.44;;;20.70;100.00
818;BME280;391;51.052;6.954;2023-08-12T08:44:02;100805.13;;;20.65;100.00
818;BME280;391;51.052;6.954;2023-08-12T08:46:07;100806.91;;;20.63;100.00
818;BME280;391;51.052;6.954;2023-08-12T08:48:11;100818.38;;;20.65;100.00
818;BME280;391;51.052;6.954;2023-08-12T08:50:20;100826.34;;;20.64;100.00
818;BME280;391;51.052;6.954;2023-08-12T08:52:24;100819.31;;;20.61;100.00
818;BME280;391;51.052;6.954;2023-08-12T08:54:27;100809.56;;;20.62;100.00
818;BME280;391;51.052;6.954;2023-08-12T08:56:31;100784.91;;;20.55;100.00
818;BME280;391;51.052;6.954;2023-08-12T08:58:38;100797.06;;;20.74;100.00
818;BME280;391;51.052;6.954;2023-08-12T09:00:42;100813.72;;;20.84;100.00
818;BME280;391;51.052;6.954;2023-08-12T09:02:47;100803.03;;;20.91;100.00
818;BME280;391;51.052;6.954;2023-08-12T09:04:52;100798.53;;;20.98;100.00
818;BME280;391;51.052;6.954;2023-08-12T09:06:57;100801.16;;;21.01;100.00
818;BME280;391;51.052;6.954;2023-08-12T09:09:02;100802.81;;;21.11;100.00
818;BME280;391;51.052;6.954;2023-08-12T09:11:07;100812.47;;;21.17;100.00
818;BME280;391;51.052;6.954;2023-08-12T09:13:11;100815.06;;;21.21;100.00
818;BME280;391;51.052;6.954;2023-08-12T09:15:16;100818.53;;;21.26;100.00
818;BME280;391;51.052;6.954;2023-08-12T09:17:21;100820.22;;;21.33;100.00
818;BME280;391;51.052;6.954;2023-08-12T09:19:24;100824.41;;;21.49;100.00
818;BME280;391;51.052;6.954;2023-08-12T09:21:28;100822.59;;;21.53;100.00
818;BME280;391;51.052;6.954;2023-08-12T09:23:36;100825.06;;;21.65;100.00
818;BME280;391;51.052;6.954;2023-08-12T09:25:42;100823.25;;;21.67;100.00
818;BME280;391;51.052;6.954;2023-08-12T09:27:46;100836.59;;;21.61;100.00
818;BME280;391;51.052;6.954;2023-08-12T09:29:50;100828.59;;;21.66;100.00
818;BME280;391;51.052;6.954;2023-08-12T09:32:11;100827.69;;;21.65;100.00
818;BME280;391;51.052;6.954;2023-08-12T09:34:17;100813.44;;;21.72;100.00
818;BME280;391;51.052;6.954;2023-08-12T09:36:21;100831.84;;;21.84;100.00
818;BME280;391;51.052;6.954;2023-08-12T09:38:25;100820.28;;;21.88;100.00
818;BME280;391;51.052;6.954;2023-08-12T09:40:31;100816.59;;;21.98;100.00
818;BME280;391;51.052;6.954;2023-08-12T09:42:35;100818.38;;;21.96;100.00
818;BME280;391;51.052;6.954;2023-08-12T09:44:39;100810.56;;;21.89;100.00
818;BME280;391;51.052;6.954;2023-08-12T09:46:42;100752.06;;;21.35;100.00
818;BME280;391;51.052;6.954;2023-08-12T09:48:46;100814.19;;;21.82;100.00
818;BME280;391;51.052;6.954;2023-08-12T09:50:49;100817.56;;;21.93;100.00
818;BME280;391;51.052;6.954;2023-08-12T09:52:54;100811.03;;;22.12;100.00
818;BME280;391;51.052;6.954;2023-08-12T09:54:58;100816.13;;;22.26;100.00
818;BME280;391;51.052;6.954;2023-08-12T09:57:05;100823.38;;;22.14;100.00
818;BME280;391;51.052;6.954;2023-08-12T09:59:12;100818.16;;;22.10;100.00
818;BME280;391;51.052;6.954;2023-08-12T10:01:18;100818.06;;;22.16;100.00
818;BME280;391;51.052;6.954;2023-08-12T10:03:23;100818.13;;;22.11;100.00
818;BME280;391;51.052;6.954;2023-08-12T10:05:31;100783.97;;;21.92;100.00
818;BME280;391;51.052;6.954;2023-08-12T10:07:36;100819.00;;;22.13;100.00
818;BME280;391;51.052;6.954;2023-08-12T10:09:40;100817.22;;;22.14;100.00
818;BME280;391;51.052;6.954;2023-08-12T10:11:44;100809.31;;;22.09;100.00
818;BME280;391;51.052;6.954;2023-08-12T10:13:50;100817.28;;;22.11;100.00
818;BME280;391;51.052;6.954;2023-08-12T10:15:54;100809.25;;;22.14;100.00
818;BME280;391;51.052;6.954;2023-08-12T10:17:58;100819.06;;;22.09;100.00
818;BME280;391;51.052;6.954;2023-08-12T10:20:04;100808.47;;;22.07;100.00
818;BME280;391;51.052;6.954;2023-08-12T10:22:08;100819.09;;;22.06;100.00
818;BME280;391;51.052;6.954;2023-08-12T10:24:14;100803.22;;;22.03;100.00
818;BME280;391;51.052;6.954;2023-08-12T10:26:19;100799.69;;;22.04;100.00
818;BME280;391;51.052;6.954;2023-08-12T10:28:24;100811.19;;;22.03;100.00
818;BME280;391;51.052;6.954;2023-08-12T10:30:30;100798.00;;;21.98;100.00
818;BME280;391;51.052;6.954;2023-08-12T10:32:34;100803.22;;;22.04;100.00
818;BME280;391;51.052;6.954;2023-08-12T10:34:37;100804.94;;;22.05;100.00
818;BME280;391;51.052;6.954;2023-08-12T10:36:41;100806.72;;;22.06;100.00
818;BME280;391;51.052;6.954;2023-08-12T10:39:07;100801.41;;;22.06;100.00
818;BME280;391;51.052;6.954;2023-08-12T10:41:16;100774.19;;;21.94;100.00
818;BME280;391;51.052;6.954;2023-08-12T10:43:20;100767.16;;;21.90;100.00
818;BME280;391;51.052;6.954;2023-08-12T10:45:43;100793.44;;;22.06;100.00
818;BME280;391;51.052;6.954;2023-08-12T10:48:09;100794.31;;;22.07;100.00
818;BME280;391;51.052;6.954;2023-08-12T10:50:17;100793.44;;;22.05;100.00
818;BME280;391;51.052;6.954;2023-08-12T10:52:26;100801.28;;;22.12;100.00
818;BME280;391;51.052;6.954;2023-08-12T10:54:30;100792.38;;;22.17;100.00
818;BME280;391;51.052;6.954;2023-08-12T10:57:03;100788.81;;;22.18;100.00
818;BME280;391;51.052;6.954;2023-08-12T11:02:05;100723.09;;;21.77;100.00
818;BME280;391;51.052;6.954;2023-08-12T11:04:17;100766.28;;;21.89;100.00
818;BME280;391;51.052;6.954;2023-08-12T11:06:20;100780.31;;;21.96;100.00
818;BME280;391;51.052;6.954;2023-08-12T11:08:26;100775.06;;;21.93;100.00
818;BME280;391;51.052;6.954;2023-08-12T11:10:31;100775.13;;;21.87;100.00
818;BME280;391;51.052;6.954;2023-08-12T11:12:38;100774.25;;;21.86;100.00
818;BME280;391;51.052;6.954;2023-08-12T11:14:48;100778.78;;;21.81;100.00
818;BME280;391;51.052;6.954;2023-08-12T11:16:54;100776.28;;;21.72;100.00
818;BME280;391;51.052;6.954;2023-08-12T11:21:02;100775.66;;;21.55;100.00
818;BME280;391;51.052;6.954;2023-08-12T11:23:08;100770.41;;;21.52;100.00